Terminal Aerodrome Forecast
Issued by NWS Charleston, WV

Home | Current Version | Previous Version | Text Only | Print | Product List | Glossary On
Versions: 1 2 3 4 5 6 7 8 9 10 11 12 13 14 15 16 17 18 19 20 21
000
FTUS41 KRLX 261740
TAFHTS
TAF
KHTS 261740Z 2618/2718 26011G18KT P6SM FEW040 SCT060
     FM262300 22004KT P6SM FEW250
     FM270500 19007KT P6SM BKN060
     FM271600 26006KT P6SM BKN030
     FM271700 26005KT P6SM SHRA VCTS BKN024CB=

USA.gov is the U.S. government's official web portal to all federal, state and local government web resources and services.